Time;durP1;ratioP1;P1;durP2;ratioP2;P2;SDS_P1;SDS_P2;PMS_P1;PMS_P2;Temp;Humidity;BMP_temperature;BMP_pressure;BME280_temperature;BME280_humidity;BME280_pressure;Samples;Min_cycle;Max_cycle;Signal;HPM_P1;HPM_P2
2023/05/01 00:00:47;;;;;;;13.70;6.40;;;;;;;6.53;52.46;100679.40;103764;1251;107705;-68
2023/05/01 00:03:35;;;;;;;14.10;6.00;;;;;;;6.49;52.64;100679.79;103174;1254;96437;-68
2023/05/01 00:06:16;;;;;;;13.90;6.30;;;;;;;6.47;52.73;100677.57;103064;1257;137922;-67
2023/05/01 00:09:06;;;;;;;17.20;6.20;;;;;;;6.44;52.74;100683.44;103236;1254;96510;-68
2023/05/01 00:11:53;;;;;;;12.50;5.70;;;;;;;6.41;52.76;100684.68;103068;1256;137077;-68
2023/05/01 00:14:39;;;;;;;;;;;;;;;6.38;52.90;100679.52;103234;1254;108120;-68
2023/05/01 00:17:17;;;;;;;14.90;5.50;;;;;;;6.35;53.19;100679.90;103128;1257;123547;-68
2023/05/01 00:19:57;;;;;;;11.10;5.80;;;;;;;6.32;53.17;100684.24;103194;1253;108837;-67
2023/05/01 00:22:44;;;;;;;14.90;6.30;;;;;;;6.28;53.18;100681.34;103103;1257;137305;-67
2023/05/01 00:25:22;;;;;;;12.20;5.80;;;;;;;6.24;53.26;100681.88;103229;1254;109880;-67
2023/05/01 00:27:49;;;;;;;14.60;7.20;;;;;;;6.22;53.41;100683.79;103171;1254;108646;-67
2023/05/01 00:30:35;;;;;;;;;;;;;;;6.18;53.55;100686.24;103280;1256;96438;-68
2023/05/01 00:33:22;;;;;;;14.40;6.50;;;;;;;6.11;53.76;100688.89;103266;1254;108024;-67
2023/05/01 00:36:10;;;;;;;11.90;6.30;;;;;;;6.08;53.91;100685.27;103138;1255;137576;-67
2023/05/01 00:38:38;;;;;;;15.10;5.90;;;;;;;6.07;53.96;100688.55;103256;1253;110142;-68
2023/05/01 00:41:07;;;;;;;12.00;6.20;;;;;;;6.06;54.03;100692.53;102986;1257;138901;-68
2023/05/01 00:43:38;;;;;;;15.00;6.10;;;;;;;6.04;54.19;100687.89;103111;1255;96501;-68
2023/05/01 00:46:26;;;;;;;10.80;5.90;;;;;;;6.03;54.16;100686.52;103082;1254;137194;-68
2023/05/01 00:49:14;;;;;;;12.40;5.90;;;;;;;6.03;54.46;100690.83;103275;1257;96383;-67
2023/05/01 00:52:01;;;;;;;12.10;5.80;;;;;;;6.01;54.33;100688.77;103290;1254;110548;-67
2023/05/01 00:54:51;;;;;;;10.60;5.70;;;;;;;5.98;54.44;100691.91;103258;1257;107889;-68
2023/05/01 00:57:38;;;;;;;15.00;6.00;;;;;;;5.92;54.58;100690.04;103298;1257;96504;-67
2023/05/01 01:00:26;;;;;;;13.40;5.90;;;;;;;5.90;54.64;100690.38;103238;1254;109125;-67
2023/05/01 01:03:11;;;;;;;;;;;;;;;5.86;54.65;100689.01;103328;1253;96578;-68
2023/05/01 01:06:04;;;;;;;13.40;6.00;;;;;;;5.80;54.85;100692.33;103198;1254;123283;-68
2023/05/01 01:09:00;;;;;;;10.90;6.10;;;;;;;5.77;54.87;100689.94;103245;1257;108225;-68
2023/05/01 01:11:58;;;;;;;16.40;5.90;;;;;;;5.71;55.09;100689.42;103170;1254;137229;-68
2023/05/01 01:14:53;;;;;;;13.20;6.20;;;;;;;5.70;55.24;100689.09;103220;1257;107904;-67
2023/05/01 01:17:48;;;;;;;13.30;5.80;;;;;;;5.68;55.10;100688.77;103101;1253;137938;-68
2023/05/01 01:20:41;;;;;;;11.10;6.00;;;;;;;5.66;55.25;100690.16;103279;1257;111301;-67
2023/05/01 01:23:43;;;;;;;14.60;5.80;;;;;;;5.65;55.30;100690.67;103330;1255;137995;-68
2023/05/01 01:26:33;;;;;;;15.40;6.30;;;;;;;5.65;55.49;100688.42;103201;1254;96425;-67
2023/05/01 01:29:39;;;;;;;13.70;5.70;;;;;;;5.66;55.32;100691.53;103147;1254;138075;-68
2023/05/01 01:32:50;;;;;;;13.40;5.70;;;;;;;5.66;55.15;100692.22;103235;1254;96456;-67
2023/05/01 01:35:42;;;;;;;10.60;5.50;;;;;;;5.65;55.32;100693.44;103023;1254;137811;-67
2023/05/01 01:38:36;;;;;;;10.80;5.10;;;;;;;5.65;55.26;100695.85;103173;1254;108222;-67
2023/05/01 01:41:30;;;;;;;15.00;6.00;;;;;;;5.65;55.40;100700.34;103017;1257;137936;-67
2023/05/01 01:44:25;;;;;;;10.10;5.00;;;;;;;5.64;55.45;100705.00;103229;1257;109123;-67
2023/05/01 01:47:16;;;;;;;14.10;5.90;;;;;;;5.63;55.23;100702.25;103099;1257;137977;-67
2023/05/01 01:49:55;;;;;;;17.10;5.90;;;;;;;5.62;55.54;100703.13;103182;1257;110904;-67
2023/05/01 01:52:45;;;;;;;11.00;5.70;;;;;;;5.62;55.54;100701.73;103041;1254;138155;-67
2023/05/01 01:55:27;;;;;;;14.40;6.20;;;;;;;5.61;55.44;100703.63;103253;1254;96940;-67
2023/05/01 01:58:11;;;;;;;13.10;5.80;;;;;;;5.60;55.42;100703.13;103049;1257;138043;-68
2023/05/01 02:00:40;;;;;;;11.50;5.00;;;;;;;5.59;55.29;100702.45;103385;1253;96505;-69
2023/05/01 02:03:13;;;;;;;10.20;5.50;;;;;;;5.57;55.35;100702.45;104202;1253;110418;-68
2023/05/01 02:05:43;;;;;;;14.60;6.00;;;;;;;5.57;55.26;100701.92;103381;1255;138158;-67
2023/05/01 02:08:34;;;;;;;13.60;7.40;;;;;;;5.55;55.32;100700.88;103282;1253;96704;-67
2023/05/01 02:11:27;;;;;;;11.20;5.80;;;;;;;5.54;55.05;100701.06;103158;1257;137957;-67
2023/05/01 02:14:16;;;;;;;12.20;5.70;;;;;;;5.53;55.22;100699.70;103148;1254;96538;-67
2023/05/01 02:17:04;;;;;;;10.70;5.70;;;;;;;5.51;55.15;100701.09;103093;1257;138114;-67
2023/05/01 02:19:53;;;;;;;11.30;5.70;;;;;;;5.48;55.18;100699.73;103180;1254;107170;-68
2023/05/01 02:22:44;;;;;;;15.20;5.70;;;;;;;5.45;55.11;100696.64;103136;1253;138216;-68
2023/05/01 02:25:23;;;;;;;12.80;5.50;;;;;;;5.43;55.16;100697.85;103298;1253;108892;-67
2023/05/01 02:28:03;;;;;;;10.70;5.10;;;;;;;5.42;55.30;100696.82;103221;1258;96446;-66
2023/05/01 02:30:45;;;;;;;15.00;5.70;;;;;;;5.40;55.13;100697.70;103250;1253;109981;-67
2023/05/01 02:33:33;;;;;;;11.30;5.60;;;;;;;5.38;55.28;100703.71;103625;1253;106681;-67
2023/05/01 02:36:12;;;;;;;13.30;5.40;;;;;;;5.37;55.29;100698.20;102954;1253;138219;-67
2023/05/01 02:38:59;;;;;;;17.50;6.10;;;;;;;5.37;55.28;100700.62;104742;1252;107506;-68
2023/05/01 02:41:47;;;;;;;11.50;5.40;;;;;;;5.35;55.40;100705.45;103112;1257;138026;-67
2023/05/01 02:44:41;;;;;;;11.60;5.50;;;;;;;5.34;55.34;100702.52;102583;1257;1003654;-68
2023/05/01 02:47:32;;;;;;;11.00;5.40;;;;;;;5.33;55.14;100701.50;103227;1253;138143;-67
2023/05/01 02:50:01;;;;;;;15.00;5.60;;;;;;;5.33;55.36;100702.19;103317;1257;96986;-67
2023/05/01 02:52:50;;;;;;;13.40;5.70;;;;;;;5.32;55.51;100699.95;103173;1253;137770;-67
2023/05/01 02:55:43;;;;;;;11.60;5.40;;;;;;;5.31;55.38;100695.81;103178;1255;96457;-67
2023/05/01 02:58:18;;;;;;;9.40;5.40;;;;;;;5.29;55.51;100693.94;103143;1253;137964;-67
2023/05/01 03:00:55;;;;;;;13.30;5.90;;;;;;;5.28;55.50;100694.80;103258;1253;106776;-67
2023/05/01 03:03:36;;;;;;;10.10;5.50;;;;;;;5.26;55.47;100697.23;103255;1253;96445;-67
2023/05/01 03:06:23;;;;;;;10.80;5.00;;;;;;;5.25;55.73;100700.67;103157;1253;137599;-67
2023/05/01 03:09:11;;;;;;;11.60;5.30;;;;;;;5.24;55.65;100701.72;103275;1257;96514;-67
2023/05/01 03:12:17;;;;;;;10.20;5.70;;;;;;;5.25;55.53;100700.84;103250;1257;137652;-68
2023/05/01 03:15:05;;;;;;;12.70;5.30;;;;;;;5.25;55.69;100700.50;103331;1254;107135;-67
2023/05/01 03:17:53;;;;;;;9.30;5.10;;;;;;;5.25;55.60;100700.85;103617;1257;138156;-67
2023/05/01 03:21:00;;;;;;;12.20;5.90;;;;;;;5.26;55.92;100699.98;104446;1252;107004;-67
2023/05/01 03:23:48;;;;;;;10.40;5.10;;;;;;;5.28;55.90;100698.42;103186;1254;138071;-67
2023/05/01 03:26:35;;;;;;;17.50;5.80;;;;;;;5.29;55.85;100699.11;103387;1252;110509;-68
2023/05/01 03:29:13;;;;;;;12.70;6.30;;;;;;;5.31;55.95;100696.85;102429;1258;1002983;-68
2023/05/01 03:31:56;;;;;;;14.10;6.30;;;;;;;5.33;55.92;100696.33;103124;1254;96463;-67
2023/05/01 03:34:34;;;;;;;11.70;6.40;;;;;;;5.34;56.19;100696.15;103025;1253;137918;-67
2023/05/01 03:37:03;;;;;;;15.10;6.10;;;;;;;5.36;55.97;100692.69;103209;1254;96460;-67
2023/05/01 03:39:42;;;;;;;;;;;;;;;5.38;56.15;100690.27;103236;1254;110028;-67
2023/05/01 03:42:28;;;;;;;19.20;6.50;;;;;;;5.40;56.32;100685.80;103667;1254;124224;-68
2023/05/01 03:45:00;;;;;;;16.60;6.80;;;;;;;5.42;56.27;100687.86;103292;1256;96449;-67
2023/05/01 03:47:30;;;;;;;15.60;6.50;;;;;;;5.43;56.38;100690.09;103072;1255;138015;-67
2023/05/01 03:50:16;;;;;;;;;;;;;;;5.48;56.24;100688.67;103355;1253;96422;-67
2023/05/01 03:53:04;;;;;;;11.30;6.90;;;;;;;5.51;56.23;100693.67;103200;1257;124716;-67
2023/05/01 03:55:51;;;;;;;15.70;6.50;;;;;;;5.55;56.22;100696.75;103119;1258;108345;-67
2023/05/01 03:58:31;;;;;;;12.40;6.10;;;;;;;5.58;56.00;100694.69;103210;1257;138178;-67
2023/05/01 04:01:12;;;;;;;13.60;6.60;;;;;;;5.62;56.01;100696.91;103124;1256;108094;-67
2023/05/01 04:03:52;;;;;;;13.80;6.90;;;;;;;5.65;56.16;100699.13;103103;1256;96481;-67
2023/05/01 04:06:30;;;;;;;13.60;7.00;;;;;;;5.69;56.02;100698.59;103236;1256;110316;-67
2023/05/01 04:09:09;;;;;;;14.20;7.20;;;;;;;5.74;56.25;100695.64;103204;1255;107703;-67
2023/05/01 04:12:01;;;;;;;13.50;7.30;;;;;;;5.81;56.24;100699.22;103203;1253;137969;-67
2023/05/01 04:14:37;;;;;;;9.90;6.10;;;;;;;5.89;56.25;100705.91;103251;1257;107303;-67
2023/05/01 04:17:17;;;;;;;15.10;6.60;;;;;;;5.96;56.17;100705.56;103116;1253;137794;-67
2023/05/01 04:20:06;;;;;;;8.40;6.10;;;;;;;6.03;56.00;100700.33;103252;1254;110560;-68
2023/05/01 04:22:47;;;;;;;11.50;6.30;;;;;;;6.13;56.07;100699.92;103107;1257;138109;-68
2023/05/01 04:25:24;;;;;;;13.50;6.40;;;;;;;6.23;55.58;100700.02;103266;1253;96320;-68
2023/05/01 04:28:32;;;;;;;17.10;7.20;;;;;;;6.36;55.49;100698.89;103183;1254;138029;-68
2023/05/01 04:31:13;;;;;;;11.40;6.10;;;;;;;6.48;55.33;100695.16;103091;1258;96413;-68
2023/05/01 04:34:00;;;;;;;11.20;6.20;;;;;;;6.62;55.06;100697.98;103179;1254;111108;-68
2023/05/01 04:36:36;;;;;;;14.70;6.90;;;;;;;6.76;54.84;100696.64;103093;1258;107560;-69
2023/05/01 04:39:23;;;;;;;11.70;5.80;;;;;;;6.90;54.58;100695.30;103189;1257;96517;-68
2023/05/01 04:41:53;;;;;;;11.90;6.70;;;;;;;7.02;54.44;100692.92;103024;1254;137196;-68
2023/05/01 04:44:41;;;;;;;11.90;6.40;;;;;;;7.21;54.55;100699.98;103302;1253;96556;-68
2023/05/01 04:47:29;;;;;;;14.20;7.20;;;;;;;7.46;54.53;100694.51;103220;1257;137098;-68
2023/05/01 04:50:08;;;;;;;12.50;5.90;;;;;;;7.75;54.28;100693.61;103243;1253;107778;-68
2023/05/01 04:52:38;;;;;;;10.30;5.60;;;;;;;8.34;53.75;100694.13;103222;1255;137603;-68
2023/05/01 04:55:06;;;;;;;12.20;4.90;;;;;;;9.61;52.80;100684.67;103166;1256;107868;-67
2023/05/01 04:57:35;;;;;;;11.20;4.50;;;;;;;11.31;51.11;100678.36;103592;1256;96557;-68
2023/05/01 05:00:06;;;;;;;9.90;4.10;;;;;;;13.50;48.24;100671.04;103074;1258;138381;-67
2023/05/01 05:02:39;;;;;;;7.90;4.20;;;;;;;15.77;45.39;100665.88;103191;1258;107715;-68
2023/05/01 05:05:07;;;;;;;10.00;4.10;;;;;;;17.80;42.36;100656.59;103050;1258;137451;-68
2023/05/01 05:07:40;;;;;;;11.00;4.30;;;;;;;19.55;39.41;100648.50;103010;1256;107692;-68
2023/05/01 05:10:25;;;;;;;8.80;4.20;;;;;;;21.37;36.34;100642.34;103039;1256;137895;-68
2023/05/01 05:13:06;;;;;;;11.30;3.60;;;;;;;22.91;34.02;100636.08;103323;1256;109339;-68
2023/05/01 05:15:33;;;;;;;7.20;3.50;;;;;;;24.09;32.00;100635.34;103325;1257;107020;-69
2023/05/01 05:18:01;;;;;;;5.60;3.30;;;;;;;25.18;30.08;100632.52;103058;1254;137618;-70
2023/05/01 05:20:29;;;;;;;7.20;3.30;;;;;;;26.10;28.62;100628.06;103088;1256;109118;-70
2023/05/01 05:22:56;;;;;;;6.00;3.00;;;;;;;27.09;27.24;100621.84;103002;1260;138451;-68
2023/05/01 05:25:28;;;;;;;9.40;3.20;;;;;;;27.99;26.05;100628.86;104162;1258;109556;-69
2023/05/01 05:27:56;;;;;;;6.90;3.10;;;;;;;28.68;24.63;100622.95;103184;1256;108865;-69
2023/05/01 05:30:25;;;;;;;4.30;2.50;;;;;;;29.15;22.73;100620.45;102932;1256;139077;-69
2023/05/01 05:32:52;;;;;;;6.80;3.10;;;;;;;29.72;22.01;100612.64;103198;1254;108131;-69
2023/05/01 05:35:21;;;;;;;4.40;2.50;;;;;;;30.39;21.56;100616.64;102967;1259;137680;-69
2023/05/01 05:37:51;;;;;;;4.40;2.60;;;;;;;30.86;20.78;100614.42;103119;1260;109621;-69
2023/05/01 05:40:18;;;;;;;8.60;2.80;;;;;;;31.53;19.92;100615.38;103068;1257;137738;-69
2023/05/01 05:42:52;;;;;;;7.40;2.60;;;;;;;31.94;18.92;100614.89;103092;1258;96451;-69
2023/05/01 05:45:26;;;;;;;7.80;2.70;;;;;;;32.41;18.97;100613.63;103145;1255;107583;-70
2023/05/01 05:47:57;;;;;;;5.00;2.50;;;;;;;32.88;18.54;100610.98;103261;1258;139277;-70
2023/05/01 05:50:24;;;;;;;4.50;2.40;;;;;;;33.45;18.23;100613.38;103161;1260;101041;-70
2023/05/01 05:52:51;;;;;;;7.70;3.00;;;;;;;33.66;17.11;100613.02;103107;1253;138354;-69
2023/05/01 05:55:19;;;;;;;5.40;2.40;;;;;;;33.61;16.48;100618.92;103001;1254;96448;-70
2023/05/01 05:57:58;;;;;;;4.40;2.50;;;;;;;33.62;15.78;100615.77;103159;1256;100301;-67
2023/05/01 06:00:25;;;;;;;6.70;2.10;;;;;;;33.66;15.50;100618.27;103054;1259;139270;-69
2023/05/01 06:02:53;;;;;;;4.50;2.20;;;;;;;33.67;15.28;100619.06;103559;1258;102577;-69
2023/05/01 06:05:20;;;;;;;5.90;2.30;;;;;;;33.92;15.27;100616.52;103038;1255;137949;-69
2023/05/01 06:07:48;;;;;;;5.40;2.80;;;;;;;34.28;14.73;100619.96;103259;1258;97047;-69
2023/05/01 06:10:15;;;;;;;5.20;2.80;;;;;;;34.36;14.61;100621.27;102999;1256;137228;-69
2023/05/01 06:12:43;;;;;;;4.70;2.50;;;;;;;34.54;14.66;100621.80;102968;1253;180559;-70
2023/05/01 06:15:28;;;;;;;4.80;2.60;;;;;;;34.62;14.45;100625.27;103271;1253;102351;-71
2023/05/01 06:17:56;;;;;;;4.20;2.10;;;;;;;34.60;13.89;100626.34;103117;1258;138439;-71
2023/05/01 06:20:23;;;;;;;3.50;1.90;;;;;;;34.63;13.88;100623.24;103102;1256;96531;-68
2023/05/01 06:22:50;;;;;;;3.60;1.90;;;;;;;34.73;13.73;100621.73;102981;1255;139037;-70
2023/05/01 06:25:23;;;;;;;4.30;2.30;;;;;;;34.82;13.83;100620.42;103114;1258;96521;-69
2023/05/01 06:27:51;;;;;;;6.10;2.50;;;;;;;34.89;13.57;100625.25;103169;1254;102440;-69
2023/05/01 06:30:20;;;;;;;8.10;2.40;;;;;;;34.84;13.34;100629.01;102939;1255;137299;-69
2023/05/01 06:32:48;;;;;;;7.80;2.60;;;;;;;34.60;13.04;100628.60;103207;1258;96438;-67
2023/05/01 06:35:15;;;;;;;5.30;2.90;;;;;;;34.53;13.27;100631.59;103075;1260;138253;-68
2023/05/01 06:37:47;;;;;;;4.40;2.60;;;;;;;34.82;13.39;100631.94;103142;1256;96413;-68
2023/05/01 06:40:37;;;;;;;6.30;2.90;;;;;;;35.17;13.45;100630.17;103053;1256;139009;-69
2023/05/01 06:43:04;;;;;;;4.60;2.40;;;;;;;35.30;13.22;100628.98;103078;1258;98630;-68
2023/05/01 06:45:31;;;;;;;5.10;2.30;;;;;;;35.45;12.99;100631.58;103110;1258;96454;-68
2023/05/01 06:47:58;;;;;;;6.50;2.60;;;;;;;35.27;12.79;100630.93;102854;1257;137305;-69
2023/05/01 06:50:25;;;;;;;4.20;2.30;;;;;;;35.19;12.74;100626.23;103155;1256;96559;-68
2023/05/01 06:52:52;;;;;;;6.80;2.60;;;;;;;35.22;12.73;100623.06;103122;1257;137275;-68
2023/05/01 06:55:19;;;;;;;4.50;2.40;;;;;;;35.53;12.64;100622.44;103197;1256;98749;-69
2023/05/01 06:58:03;;;;;;;4.10;1.90;;;;;;;35.82;12.56;100627.60;103230;1258;96472;-71
2023/05/01 07:00:48;;;;;;;6.80;2.60;;;;;;;35.69;12.26;100621.29;103001;1256;101584;-68
2023/05/01 07:03:16;;;;;;;6.70;2.60;;;;;;;35.67;12.31;100624.77;103155;1254;96424;-69
2023/05/01 07:05:51;;;;;;;7.40;2.30;;;;;;;35.57;12.10;100618.48;103105;1257;137460;-68
2023/05/01 07:08:20;;;;;;;8.00;2.80;;;;;;;35.37;12.18;100616.98;103171;1256;99710;-68
2023/05/01 07:10:48;;;;;;;8.40;2.20;;;;;;;35.35;12.23;100619.55;103130;1253;137269;-69
2023/05/01 07:13:15;;;;;;;6.80;2.50;;;;;;;35.32;11.94;100621.54;103254;1258;99105;-69
2023/05/01 07:15:43;;;;;;;7.00;2.40;;;;;;;35.13;11.84;100619.05;103288;1253;96454;-69
2023/05/01 07:18:11;;;;;;;6.30;2.30;;;;;;;34.77;12.04;100618.27;103052;1254;137223;-69
2023/05/01 07:20:39;;;;;;;6.20;2.30;;;;;;;34.90;12.38;100614.69;103290;1253;99996;-69
2023/05/01 07:23:06;;;;;;;6.40;2.60;;;;;;;35.26;12.42;100612.29;103109;1257;137247;-70
2023/05/01 07:25:33;;;;;;;4.80;2.00;;;;;;;35.54;12.19;100613.56;103299;1257;98514;-69
2023/05/01 07:28:03;;;;;;;7.10;2.30;;;;;;;35.58;11.93;100618.41;103249;1259;96414;-70
2023/05/01 07:30:31;;;;;;;6.20;2.70;;;;;;;35.40;11.87;100619.13;103209;1253;137258;-70
2023/05/01 07:32:58;;;;;;;8.00;2.50;;;;;;;35.12;12.03;100616.63;103206;1259;99306;-70
2023/05/01 07:35:26;;;;;;;3.20;2.10;;;;;;;35.06;11.92;100619.48;103112;1257;137016;-68
2023/05/01 07:37:53;;;;;;;4.60;2.40;;;;;;;34.50;11.56;100625.00;103291;1257;99062;-70
2023/05/01 07:40:21;;;;;;;5.70;2.60;;;;;;;33.53;11.86;100620.23;103128;1253;96344;-69
2023/05/01 07:42:48;;;;;;;8.30;2.60;;;;;;;33.10;12.36;100620.21;103091;1254;137997;-69
2023/05/01 07:45:16;;;;;;;4.90;2.70;;;;;;;33.03;12.62;100617.34;103174;1254;107799;-69
2023/05/01 07:47:43;;;;;;;6.80;2.60;;;;;;;33.27;12.88;100619.36;103088;1253;137416;-73
2023/05/01 07:50:13;;;;;;;5.00;2.30;;;;;;;33.32;12.57;100616.77;103258;1253;99096;-69
2023/05/01 07:52:40;;;;;;;5.80;2.70;;;;;;;33.16;12.74;100614.02;103161;1253;137441;-68
2023/05/01 07:55:09;;;;;;;6.80;2.70;;;;;;;33.19;13.04;100616.84;103105;1256;102028;-69
2023/05/01 07:57:37;;;;;;;5.50;2.50;;;;;;;33.00;12.70;100627.77;104221;1254;100166;-68
2023/05/01 08:00:05;;;;;;;7.60;2.70;;;;;;;32.35;12.68;100624.81;103114;1258;137512;-69
2023/05/01 08:02:39;;;;;;;4.90;2.80;;;;;;;32.12;12.97;100619.05;104707;1256;100298;-69
2023/05/01 08:05:08;;;;;;;6.40;2.70;;;;;;;32.04;13.26;100616.48;103204;1257;137792;-69
2023/05/01 08:07:34;;;;;;;6.20;3.10;;;;;;;31.89;12.95;100616.03;103179;1258;110220;-68
2023/05/01 08:10:01;;;;;;;4.80;2.70;;;;;;;31.34;13.30;100619.63;103080;1256;107764;-69
2023/05/01 08:12:30;;;;;;;7.60;2.80;;;;;;;30.68;13.11;100624.51;103157;1257;137913;-67
2023/05/01 08:14:57;;;;;;;4.10;2.60;;;;;;;30.03;13.86;100627.93;103272;1254;107605;-68
2023/05/01 08:17:24;;;;;;;5.50;2.50;;;;;;;29.83;14.19;100622.91;103109;1269;137471;-67
2023/05/01 08:19:55;;;;;;;5.80;2.70;;;;;;;29.75;14.62;100624.34;103158;1257;109702;-69
2023/05/01 08:22:26;;;;;;;4.30;2.60;;;;;;;30.10;14.94;100623.55;103211;1258;107157;-69
2023/05/01 08:24:55;;;;;;;5.30;2.30;;;;;;;30.30;14.29;100622.56;103191;1257;96492;-69
2023/05/01 08:27:22;;;;;;;7.20;2.80;;;;;;;30.17;14.49;100617.65;103222;1257;107852;-70
2023/05/01 08:29:51;;;;;;;7.20;2.90;;;;;;;30.30;14.64;100625.12;103161;1257;138289;-70
2023/05/01 08:32:21;;;;;;;4.50;2.40;;;;;;;30.34;14.71;100619.70;103251;1253;111192;-68
2023/05/01 08:34:48;;;;;;;6.70;2.90;;;;;;;30.00;14.36;100625.07;103047;1257;137705;-68
2023/05/01 08:37:17;;;;;;;6.10;2.70;;;;;;;29.32;14.45;100629.77;103218;1256;96469;-73
2023/05/01 08:39:45;;;;;;;4.80;2.70;;;;;;;29.04;14.90;100619.40;103189;1253;106747;-71
2023/05/01 08:42:13;;;;;;;5.30;2.50;;;;;;;28.88;14.84;100614.61;102987;1256;137569;-71
2023/05/01 08:44:40;;;;;;;5.70;2.40;;;;;;;28.86;15.24;100615.77;103168;1254;110057;-70
2023/05/01 08:47:16;;;;;;;5.50;2.80;;;;;;;28.85;15.19;100613.69;102879;1257;137615;-68
2023/05/01 08:49:44;;;;;;;4.70;2.70;;;;;;;28.35;15.44;100615.75;103328;1253;96536;-71
2023/05/01 08:52:13;;;;;;;5.90;2.80;;;;;;;27.88;15.35;100628.14;103096;1253;110550;-62
2023/05/01 08:54:42;;;;;;;5.50;2.70;;;;;;;27.48;15.88;100620.60;103058;1256;137489;-61
2023/05/01 08:57:12;;;;;;;6.30;3.00;;;;;;;27.20;16.10;100617.67;104242;1256;109984;-62
2023/05/01 08:59:40;;;;;;;4.30;2.70;;;;;;;27.23;16.67;100620.05;103116;1257;137429;-61
2023/05/01 09:02:08;;;;;;;6.20;2.70;;;;;;;27.47;16.88;100622.20;103125;1257;96391;-62
2023/05/01 09:04:37;;;;;;;5.70;2.10;;;;;;;27.65;16.60;100617.00;103998;1255;137606;-61
2023/05/01 09:07:05;;;;;;;7.30;2.70;;;;;;;27.87;16.93;100618.59;103140;1258;96327;-62
2023/05/01 09:09:33;;;;;;;5.20;2.90;;;;;;;28.27;16.74;100613.18;103276;1256;110792;-62
2023/05/01 09:12:06;;;;;;;5.30;3.00;;;;;;;28.12;15.94;100616.27;103097;1255;137666;-62
2023/05/01 09:14:33;;;;;;;4.40;2.60;;;;;;;27.65;16.66;100608.79;103153;1256;96438;-62
2023/05/01 09:17:00;;;;;;;4.80;2.40;;;;;;;28.00;16.63;100611.39;103031;1255;137487;-60
2023/05/01 09:19:28;;;;;;;4.80;2.60;;;;;;;28.21;16.59;100606.79;103179;1254;96437;-62
2023/05/01 09:21:56;;;;;;;3.30;2.30;;;;;;;28.33;16.05;100612.21;103215;1259;110865;-62
2023/05/01 09:24:25;;;;;;;4.30;2.60;;;;;;;27.96;15.96;100610.33;103029;1258;137490;-60
2023/05/01 09:26:52;;;;;;;7.20;2.80;;;;;;;27.90;16.43;100598.98;104571;1256;95097;-68
2023/05/01 09:29:39;;;;;;;4.20;2.50;;;;;;;28.13;16.17;100598.70;103698;1254;137273;-68
2023/05/01 09:32:16;;;;;;;5.70;2.40;;;;;;;28.31;15.66;100592.77;104232;1253;95309;-68
2023/05/01 09:34:44;;;;;;;5.50;2.60;;;;;;;27.98;15.37;100596.55;103313;1255;137403;-66
2023/05/01 09:37:13;;;;;;;7.40;2.20;;;;;;;27.58;15.75;100589.30;103042;1258;109839;-70
2023/05/01 09:39:40;;;;;;;5.90;2.40;;;;;;;27.28;15.97;100583.85;103108;1258;96428;-68
2023/05/01 09:42:08;;;;;;;6.90;2.60;;;;;;;27.04;16.45;100591.70;103083;1258;137252;-69
2023/05/01 09:44:44;;;;;;;5.10;2.40;;;;;;;26.61;15.98;100588.78;104772;1257;94536;-71
2023/05/01 09:47:12;;;;;;;4.60;2.30;;;;;;;25.81;16.09;100591.33;104123;1254;137364;-65
2023/05/01 09:49:47;;;;;;;4.40;2.50;;;;;;;25.41;16.35;100580.34;103416;1253;108761;-66
2023/05/01 09:52:15;;;;;;;5.10;2.50;;;;;;;24.98;16.85;100577.74;103930;1254;96512;-67
2023/05/01 09:54:43;;;;;;;6.60;2.70;;;;;;;25.01;17.78;100577.07;103145;1259;137213;-68
2023/05/01 09:57:10;;;;;;;5.20;2.60;;;;;;;25.48;18.24;100574.42;103163;1257;96313;-67
2023/05/01 09:59:37;;;;;;;7.60;2.50;;;;;;;25.71;18.01;100576.26;103165;1259;137262;-69
2023/05/01 10:02:05;;;;;;;5.20;2.70;;;;;;;25.62;17.63;100572.39;103119;1259;106941;-65
2023/05/01 10:04:40;;;;;;;4.60;2.30;;;;;;;25.07;17.54;100573.77;103152;1255;137709;-65
2023/05/01 10:07:16;;;;;;;5.50;2.70;;;;;;;24.88;17.76;100569.12;103379;1253;108372;-67
2023/05/01 10:09:43;;;;;;;4.00;2.30;;;;;;;24.82;17.77;100566.45;103474;1253;96400;-67
2023/05/01 10:12:10;;;;;;;4.90;2.90;;;;;;;24.58;18.07;100561.23;103121;1258;137460;-64
2023/05/01 10:14:51;;;;;;;5.60;2.80;;;;;;;24.61;18.21;100561.55;103171;1259;108551;-66
2023/05/01 10:17:22;;;;;;;4.70;2.80;;;;;;;24.67;18.29;100555.15;103142;1257;137654;-65
2023/05/01 10:19:50;;;;;;;6.30;2.60;;;;;;;24.75;18.49;100555.02;103255;1259;108118;-71
2023/05/01 10:22:17;;;;;;;6.80;2.60;;;;;;;24.77;18.40;100556.26;103156;1258;95196;-61
2023/05/01 10:24:45;;;;;;;9.20;2.80;;;;;;;24.82;18.43;100551.41;103079;1254;137144;-61
2023/05/01 10:27:13;;;;;;;5.20;2.40;;;;;;;24.76;18.68;100547.27;103224;1263;108899;-62
2023/05/01 10:29:42;;;;;;;4.70;2.70;;;;;;;24.74;18.39;100545.30;103180;1258;137621;-61
2023/05/01 10:32:09;;;;;;;7.50;3.00;;;;;;;24.68;18.44;100546.90;103922;1257;108021;-62
2023/05/01 10:34:40;;;;;;;8.10;2.80;;;;;;;24.13;18.63;100543.36;103305;1257;137657;-61
2023/05/01 10:37:13;;;;;;;4.70;2.50;;;;;;;23.76;19.13;100548.94;103294;1256;109999;-60
2023/05/01 10:39:40;;;;;;;4.50;2.30;;;;;;;23.62;19.09;100544.98;103392;1259;108017;-61
2023/05/01 10:42:10;;;;;;;5.50;2.80;;;;;;;23.38;19.16;100538.55;103132;1254;138346;-63
2023/05/01 10:44:37;;;;;;;5.70;2.80;;;;;;;23.26;19.49;100531.39;103213;1259;108520;-61
2023/05/01 10:47:36;;;;;;;7.20;2.60;;;;;;;23.41;19.82;100537.78;103794;1258;137730;-62
2023/05/01 10:50:08;;;;;;;6.20;2.40;;;;;;;23.48;19.33;100537.02;104760;1253;109596;-62
2023/05/01 10:53:18;;;;;;;6.30;2.30;;;;;;;23.59;19.02;100534.60;103711;1257;137787;-62
2023/05/01 10:55:46;;;;;;;7.40;2.80;;;;;;;23.69;18.87;100529.52;103318;1256;96448;-62
2023/05/01 10:58:14;;;;;;;6.10;2.80;;;;;;;23.41;19.08;100524.48;104567;1254;108284;-63
2023/05/01 11:00:41;;;;;;;6.90;2.60;;;;;;;23.11;19.08;100524.11;104501;1257;137556;-62
2023/05/01 11:03:39;;;;;;;5.60;2.40;;;;;;;22.97;20.04;100521.33;103874;1253;109131;-62
2023/05/01 11:06:10;;;;;;;5.10;2.60;;;;;;;23.18;19.77;100518.50;103068;1254;137493;-62
2023/05/01 11:08:39;;;;;;;5.40;2.80;;;;;;;23.37;19.70;100518.62;104584;1254;94610;-60
2023/05/01 11:11:40;;;;;;;10.30;6.00;;;;;;;23.12;19.26;100517.61;104533;1259;138704;-63
2023/05/01 11:14:09;;;;;;;3.90;2.30;;;;;;;22.93;19.69;100515.79;104723;1257;94548;-61
2023/05/01 11:16:49;;;;;;;4.20;2.30;;;;;;;22.67;18.79;100510.84;103882;1256;137559;-62
2023/05/01 11:19:49;;;;;;;4.10;2.10;;;;;;;21.95;19.09;100514.79;103211;1259;108272;-62
2023/05/01 11:22:17;;;;;;;5.50;2.10;;;;;;;21.33;18.95;100516.75;103251;1254;96436;-61
2023/05/01 11:24:44;;;;;;;7.30;2.40;;;;;;;21.12;19.50;100503.76;104561;1256;137330;-64
2023/05/01 11:27:15;;;;;;;4.50;1.90;;;;;;;21.07;19.77;100502.86;103547;1255;96429;-61
2023/05/01 11:29:47;;;;;;;3.70;2.00;;;;;;;21.01;19.73;100496.25;104566;1254;137274;-62
2023/05/01 11:32:19;;;;;;;4.90;2.20;;;;;;;20.85;19.70;100493.66;103656;1257;106987;-62
2023/05/01 11:34:50;;;;;;;5.10;2.10;;;;;;;20.72;19.70;100494.41;103582;1257;137750;-62
2023/05/01 11:37:17;;;;;;;7.90;2.10;;;;;;;20.49;19.21;100494.95;103283;1257;108314;-62
2023/05/01 11:39:51;;;;;;;5.90;2.10;;;;;;;20.19;19.71;100487.63;103349;1258;96296;-62
2023/05/01 11:42:22;;;;;;;3.60;2.00;;;;;;;20.17;20.22;100487.45;104193;1254;140645;-63
2023/05/01 11:45:06;;;;;;;7.90;2.20;;;;;;;20.33;20.71;100485.63;104576;1257;107580;-61
2023/05/01 11:47:35;;;;;;;5.50;2.40;;;;;;;20.57;20.55;100480.77;103874;1257;137445;-63
2023/05/01 11:50:03;;;;;;;5.70;2.20;;;;;;;20.45;20.23;100488.16;104491;1257;108736;-60
2023/05/01 11:52:41;;;;;;;5.00;2.30;;;;;;;20.15;20.46;100476.12;103612;1254;96583;-62